Becket, Massachusetts
Current Conditions -  °F | °C
As of 8:54 PM on Thursday 18 Dec 2014 (Local Time) from KPSF Reporting Station
Overcast Overcast  
Wind Chill: 16°   Ceiling: 1200
Heat Index: 29°   Visibility: 10mi
Dew Point: 25°   Wind: 21mph
Humidity: 85%   Direction: 290°WNW
Pressure: 29.86"   Gusts: 35mph
Location:  42.33°N, 73.08°W
Report Text: KPSF 190154Z AUTO 29018G30KT 10SM OVC012 M02/M04 A2986 RMK AO2 PK WND 30030/0148 SLP123 T10171039
Loading
Personal Weather Stations






























Interactive Weather Map New forecast layout! Learn more

10-Day Weather Forecast

Advertisements
Track Severe Weather on mobile